sensor_id;sensor_type;location;lat;lon;timestamp;temperature;humidity
28524;DHT22;15734;50.904;6.922;2023-04-07T00:00:39;8.50;99.90
28524;DHT22;15734;50.904;6.922;2023-04-07T00:03:05;8.50;99.90
28524;DHT22;15734;50.904;6.922;2023-04-07T00:05:31;8.60;99.90
28524;DHT22;15734;50.904;6.922;2023-04-07T00:07:57;8.60;99.90
28524;DHT22;15734;50.904;6.922;2023-04-07T00:10:23;8.60;99.90
28524;DHT22;15734;50.904;6.922;2023-04-07T00:12:48;8.60;99.90
28524;DHT22;15734;50.904;6.922;2023-04-07T00:15:14;8.60;99.90
28524;DHT22;15734;50.904;6.922;2023-04-07T00:17:40;8.60;99.90
28524;DHT22;15734;50.904;6.922;2023-04-07T00:20:05;8.70;99.90
28524;DHT22;15734;50.904;6.922;2023-04-07T00:22:31;8.70;99.90
28524;DHT22;15734;50.904;6.922;2023-04-07T00:24:56;8.70;99.90
28524;DHT22;15734;50.904;6.922;2023-04-07T00:27:22;8.70;99.90
28524;DHT22;15734;50.904;6.922;2023-04-07T00:29:47;8.70;99.90
28524;DHT22;15734;50.904;6.922;2023-04-07T00:32:13;8.70;99.90
28524;DHT22;15734;50.904;6.922;2023-04-07T00:34:38;8.70;99.90
28524;DHT22;15734;50.904;6.922;2023-04-07T00:37:03;8.70;99.90
28524;DHT22;15734;50.904;6.922;2023-04-07T00:39:31;8.70;99.90
28524;DHT22;15734;50.904;6.922;2023-04-07T00:41:57;8.60;99.90
28524;DHT22;15734;50.904;6.922;2023-04-07T00:44:22;8.60;99.90
28524;DHT22;15734;50.904;6.922;2023-04-07T00:46:47;8.70;99.90
28524;DHT22;15734;50.904;6.922;2023-04-07T00:49:14;8.60;99.90
28524;DHT22;15734;50.904;6.922;2023-04-07T00:51:39;8.60;99.90
28524;DHT22;15734;50.904;6.922;2023-04-07T00:54:05;8.60;99.90
28524;DHT22;15734;50.904;6.922;2023-04-07T00:56:31;8.60;99.90
28524;DHT22;15734;50.904;6.922;2023-04-07T00:58:56;8.70;99.90
28524;DHT22;15734;50.904;6.922;2023-04-07T01:01:23;8.70;99.90
28524;DHT22;15734;50.904;6.922;2023-04-07T01:03:54;8.70;99.90
28524;DHT22;15734;50.904;6.922;2023-04-07T01:06:23;8.70;99.90
28524;DHT22;15734;50.904;6.922;2023-04-07T01:09:01;8.70;99.90
28524;DHT22;15734;50.904;6.922;2023-04-07T01:11:30;8.70;99.90
28524;DHT22;15734;50.904;6.922;2023-04-07T01:13:57;8.70;99.90
28524;DHT22;15734;50.904;6.922;2023-04-07T01:16:31;8.80;99.90
28524;DHT22;15734;50.904;6.922;2023-04-07T01:19:00;8.70;99.90
28524;DHT22;15734;50.904;6.922;2023-04-07T01:21:26;8.70;99.90
28524;DHT22;15734;50.904;6.922;2023-04-07T01:24:18;8.70;99.90
28524;DHT22;15734;50.904;6.922;2023-04-07T01:26:46;8.80;99.90
28524;DHT22;15734;50.904;6.922;2023-04-07T01:29:29;8.80;99.90
28524;DHT22;15734;50.904;6.922;2023-04-07T01:31:57;8.90;99.90
28524;DHT22;15734;50.904;6.922;2023-04-07T01:34:24;8.80;99.90
28524;DHT22;15734;50.904;6.922;2023-04-07T01:36:51;8.80;99.90
28524;DHT22;15734;50.904;6.922;2023-04-07T01:39:16;8.90;99.90
28524;DHT22;15734;50.904;6.922;2023-04-07T01:41:42;8.90;99.90
28524;DHT22;15734;50.904;6.922;2023-04-07T01:44:08;8.90;99.90
28524;DHT22;15734;50.904;6.922;2023-04-07T01:46:35;8.90;99.90
28524;DHT22;15734;50.904;6.922;2023-04-07T01:49:00;8.90;99.90
28524;DHT22;15734;50.904;6.922;2023-04-07T01:51:26;8.90;99.90
28524;DHT22;15734;50.904;6.922;2023-04-07T01:53:52;8.90;99.90
28524;DHT22;15734;50.904;6.922;2023-04-07T01:56:18;8.90;99.90
28524;DHT22;15734;50.904;6.922;2023-04-07T01:58:44;9.00;99.90
28524;DHT22;15734;50.904;6.922;2023-04-07T02:01:09;9.00;99.90
28524;DHT22;15734;50.904;6.922;2023-04-07T02:03:39;9.10;99.90
28524;DHT22;15734;50.904;6.922;2023-04-07T02:06:07;9.10;99.90
28524;DHT22;15734;50.904;6.922;2023-04-07T02:08:34;9.10;99.90
28524;DHT22;15734;50.904;6.922;2023-04-07T02:11:00;9.10;99.90
28524;DHT22;15734;50.904;6.922;2023-04-07T02:13:27;9.20;99.90
28524;DHT22;15734;50.904;6.922;2023-04-07T02:15:54;9.20;99.90
28524;DHT22;15734;50.904;6.922;2023-04-07T02:18:21;9.30;99.90
28524;DHT22;15734;50.904;6.922;2023-04-07T02:20:47;9.30;99.90
28524;DHT22;15734;50.904;6.922;2023-04-07T02:23:14;9.30;99.90
28524;DHT22;15734;50.904;6.922;2023-04-07T02:25:40;9.30;99.90
28524;DHT22;15734;50.904;6.922;2023-04-07T02:28:05;9.30;99.90
28524;DHT22;15734;50.904;6.922;2023-04-07T02:30:31;9.40;99.90
28524;DHT22;15734;50.904;6.922;2023-04-07T02:32:57;9.40;99.90
28524;DHT22;15734;50.904;6.922;2023-04-07T02:35:22;9.40;99.90
28524;DHT22;15734;50.904;6.922;2023-04-07T02:37:48;9.40;99.90
28524;DHT22;15734;50.904;6.922;2023-04-07T02:40:14;9.40;99.90
28524;DHT22;15734;50.904;6.922;2023-04-07T02:42:40;9.40;99.90
28524;DHT22;15734;50.904;6.922;2023-04-07T02:45:05;9.40;99.90
28524;DHT22;15734;50.904;6.922;2023-04-07T02:47:34;9.50;99.90
28524;DHT22;15734;50.904;6.922;2023-04-07T02:50:00;9.50;99.90
28524;DHT22;15734;50.904;6.922;2023-04-07T02:52:26;9.50;99.90
28524;DHT22;15734;50.904;6.922;2023-04-07T02:54:51;9.50;99.90
28524;DHT22;15734;50.904;6.922;2023-04-07T02:57:17;9.50;99.90
28524;DHT22;15734;50.904;6.922;2023-04-07T02:59:42;9.50;99.90
28524;DHT22;15734;50.904;6.922;2023-04-07T03:02:08;9.50;99.90
28524;DHT22;15734;50.904;6.922;2023-04-07T03:04:33;9.50;99.90
28524;DHT22;15734;50.904;6.922;2023-04-07T03:06:59;9.50;99.90
28524;DHT22;15734;50.904;6.922;2023-04-07T03:09:24;9.50;99.90
28524;DHT22;15734;50.904;6.922;2023-04-07T03:11:50;9.50;99.90
28524;DHT22;15734;50.904;6.922;2023-04-07T03:14:16;9.50;99.90
28524;DHT22;15734;50.904;6.922;2023-04-07T03:16:41;9.50;99.90
28524;DHT22;15734;50.904;6.922;2023-04-07T03:19:07;9.50;99.90
28524;DHT22;15734;50.904;6.922;2023-04-07T03:21:33;9.50;99.90
28524;DHT22;15734;50.904;6.922;2023-04-07T03:23:58;9.50;99.90
28524;DHT22;15734;50.904;6.922;2023-04-07T03:26:24;9.50;99.90
28524;DHT22;15734;50.904;6.922;2023-04-07T03:28:50;9.50;99.90
28524;DHT22;15734;50.904;6.922;2023-04-07T03:31:15;9.50;99.90
28524;DHT22;15734;50.904;6.922;2023-04-07T03:33:40;9.50;99.90
28524;DHT22;15734;50.904;6.922;2023-04-07T03:36:06;9.50;99.90
28524;DHT22;15734;50.904;6.922;2023-04-07T03:38:32;9.50;99.90
28524;DHT22;15734;50.904;6.922;2023-04-07T03:40:58;9.50;99.90
28524;DHT22;15734;50.904;6.922;2023-04-07T03:43:23;9.50;99.90
28524;DHT22;15734;50.904;6.922;2023-04-07T03:45:48;9.50;99.90
28524;DHT22;15734;50.904;6.922;2023-04-07T03:48:14;9.50;99.90
28524;DHT22;15734;50.904;6.922;2023-04-07T03:50:40;9.50;99.90
28524;DHT22;15734;50.904;6.922;2023-04-07T03:53:06;9.50;99.90
28524;DHT22;15734;50.904;6.922;2023-04-07T03:55:32;9.50;99.90
28524;DHT22;15734;50.904;6.922;2023-04-07T03:57:57;9.50;99.90
28524;DHT22;15734;50.904;6.922;2023-04-07T04:00:23;9.50;99.90
28524;DHT22;15734;50.904;6.922;2023-04-07T04:02:48;9.50;99.90
28524;DHT22;15734;50.904;6.922;2023-04-07T04:05:14;9.40;99.90
28524;DHT22;15734;50.904;6.922;2023-04-07T04:07:39;9.40;99.90
28524;DHT22;15734;50.904;6.922;2023-04-07T04:10:05;9.40;99.90
28524;DHT22;15734;50.904;6.922;2023-04-07T04:12:31;9.40;99.90
28524;DHT22;15734;50.904;6.922;2023-04-07T04:14:56;9.40;99.90
28524;DHT22;15734;50.904;6.922;2023-04-07T04:17:22;9.30;99.90
28524;DHT22;15734;50.904;6.922;2023-04-07T04:19:47;9.30;99.90
28524;DHT22;15734;50.904;6.922;2023-04-07T04:22:13;9.30;99.90
28524;DHT22;15734;50.904;6.922;2023-04-07T04:24:38;9.30;99.90
28524;DHT22;15734;50.904;6.922;2023-04-07T04:27:06;9.30;99.90
28524;DHT22;15734;50.904;6.922;2023-04-07T04:29:31;9.30;99.90
28524;DHT22;15734;50.904;6.922;2023-04-07T04:31:57;9.30;99.90
28524;DHT22;15734;50.904;6.922;2023-04-07T04:34:22;9.30;99.90
28524;DHT22;15734;50.904;6.922;2023-04-07T04:36:48;9.30;99.90
28524;DHT22;15734;50.904;6.922;2023-04-07T04:39:13;9.30;99.90
28524;DHT22;15734;50.904;6.922;2023-04-07T04:41:39;9.30;99.90
28524;DHT22;15734;50.904;6.922;2023-04-07T04:44:04;9.20;99.90
28524;DHT22;15734;50.904;6.922;2023-04-07T04:46:30;9.20;99.90
28524;DHT22;15734;50.904;6.922;2023-04-07T04:48:56;9.20;99.90
28524;DHT22;15734;50.904;6.922;2023-04-07T04:51:22;9.20;99.90
28524;DHT22;15734;50.904;6.922;2023-04-07T04:53:47;9.20;99.90
28524;DHT22;15734;50.904;6.922;2023-04-07T04:56:13;9.20;99.90
28524;DHT22;15734;50.904;6.922;2023-04-07T04:58:39;9.10;99.90
28524;DHT22;15734;50.904;6.922;2023-04-07T05:01:06;9.10;99.90
28524;DHT22;15734;50.904;6.922;2023-04-07T05:03:31;9.10;99.90
28524;DHT22;15734;50.904;6.922;2023-04-07T05:05:57;9.10;99.90
28524;DHT22;15734;50.904;6.922;2023-04-07T05:08:22;9.10;99.90
28524;DHT22;15734;50.904;6.922;2023-04-07T05:10:48;9.00;99.90
28524;DHT22;15734;50.904;6.922;2023-04-07T05:13:13;9.00;99.90
28524;DHT22;15734;50.904;6.922;2023-04-07T05:15:39;9.00;99.90
28524;DHT22;15734;50.904;6.922;2023-04-07T05:18:05;9.00;99.90
28524;DHT22;15734;50.904;6.922;2023-04-07T05:20:30;9.00;99.90
28524;DHT22;15734;50.904;6.922;2023-04-07T05:22:56;9.00;99.90
28524;DHT22;15734;50.904;6.922;2023-04-07T05:25:21;9.00;99.90
28524;DHT22;15734;50.904;6.922;2023-04-07T05:27:47;9.00;99.90
28524;DHT22;15734;50.904;6.922;2023-04-07T05:30:12;9.00;99.90
28524;DHT22;15734;50.904;6.922;2023-04-07T05:32:38;9.00;99.90
28524;DHT22;15734;50.904;6.922;2023-04-07T05:35:03;8.90;99.90
28524;DHT22;15734;50.904;6.922;2023-04-07T05:37:29;8.90;99.90
28524;DHT22;15734;50.904;6.922;2023-04-07T05:39:55;9.00;99.90
28524;DHT22;15734;50.904;6.922;2023-04-07T05:42:20;9.00;99.90
28524;DHT22;15734;50.904;6.922;2023-04-07T05:44:46;8.90;99.90
28524;DHT22;15734;50.904;6.922;2023-04-07T05:47:11;8.90;99.90
28524;DHT22;15734;50.904;6.922;2023-04-07T05:49:37;8.90;99.90
28524;DHT22;15734;50.904;6.922;2023-04-07T05:52:10;8.90;99.90
28524;DHT22;15734;50.904;6.922;2023-04-07T05:54:35;8.90;99.90
28524;DHT22;15734;50.904;6.922;2023-04-07T05:57:01;8.90;99.90
28524;DHT22;15734;50.904;6.922;2023-04-07T05:59:26;8.80;99.90
28524;DHT22;15734;50.904;6.922;2023-04-07T06:01:52;8.80;99.90
28524;DHT22;15734;50.904;6.922;2023-04-07T06:04:18;8.80;99.90
28524;DHT22;15734;50.904;6.922;2023-04-07T06:06:43;8.80;99.90
28524;DHT22;15734;50.904;6.922;2023-04-07T06:09:08;8.80;99.90
28524;DHT22;15734;50.904;6.922;2023-04-07T06:11:34;8.80;99.90
28524;DHT22;15734;50.904;6.922;2023-04-07T06:14:00;8.80;99.90
28524;DHT22;15734;50.904;6.922;2023-04-07T06:16:25;8.70;99.90
28524;DHT22;15734;50.904;6.922;2023-04-07T06:18:50;8.70;99.90
28524;DHT22;15734;50.904;6.922;2023-04-07T06:21:16;8.70;99.90
28524;DHT22;15734;50.904;6.922;2023-04-07T06:23:41;8.70;99.90
28524;DHT22;15734;50.904;6.922;2023-04-07T06:26:10;8.70;99.90
28524;DHT22;15734;50.904;6.922;2023-04-07T06:28:36;8.70;99.90
28524;DHT22;15734;50.904;6.922;2023-04-07T06:31:01;8.70;99.90
28524;DHT22;15734;50.904;6.922;2023-04-07T06:33:27;8.70;99.90
28524;DHT22;15734;50.904;6.922;2023-04-07T06:35:52;8.70;99.90
28524;DHT22;15734;50.904;6.922;2023-04-07T06:38:18;8.70;99.90
28524;DHT22;15734;50.904;6.922;2023-04-07T06:40:43;8.70;99.90
28524;DHT22;15734;50.904;6.922;2023-04-07T06:43:09;8.70;99.90
28524;DHT22;15734;50.904;6.922;2023-04-07T06:45:34;8.70;99.90
28524;DHT22;15734;50.904;6.922;2023-04-07T06:48:00;8.70;99.90
28524;DHT22;15734;50.904;6.922;2023-04-07T06:50:25;8.70;99.90
28524;DHT22;15734;50.904;6.922;2023-04-07T06:52:51;8.70;99.90
28524;DHT22;15734;50.904;6.922;2023-04-07T06:55:16;8.70;99.90
28524;DHT22;15734;50.904;6.922;2023-04-07T06:57:42;8.70;99.90
28524;DHT22;15734;50.904;6.922;2023-04-07T07:00:07;8.70;99.90
28524;DHT22;15734;50.904;6.922;2023-04-07T07:02:33;8.80;99.90
28524;DHT22;15734;50.904;6.922;2023-04-07T07:04:59;8.80;99.90
28524;DHT22;15734;50.904;6.922;2023-04-07T07:07:24;8.80;99.90
28524;DHT22;15734;50.904;6.922;2023-04-07T07:09:50;8.90;99.90
28524;DHT22;15734;50.904;6.922;2023-04-07T07:12:16;8.80;99.90
28524;DHT22;15734;50.904;6.922;2023-04-07T07:14:42;8.90;99.90
28524;DHT22;15734;50.904;6.922;2023-04-07T07:17:08;8.90;99.90
28524;DHT22;15734;50.904;6.922;2023-04-07T07:19:33;8.90;99.90
28524;DHT22;15734;50.904;6.922;2023-04-07T07:21:59;8.90;99.90
28524;DHT22;15734;50.904;6.922;2023-04-07T07:24:25;8.90;99.90
28524;DHT22;15734;50.904;6.922;2023-04-07T07:26:50;8.90;99.90
28524;DHT22;15734;50.904;6.922;2023-04-07T07:29:16;8.90;99.90
28524;DHT22;15734;50.904;6.922;2023-04-07T07:31:41;8.90;99.90
28524;DHT22;15734;50.904;6.922;2023-04-07T07:34:09;8.90;99.90
28524;DHT22;15734;50.904;6.922;2023-04-07T07:36:34;8.80;99.90
28524;DHT22;15734;50.904;6.922;2023-04-07T07:39:00;8.80;99.90
28524;DHT22;15734;50.904;6.922;2023-04-07T07:41:25;8.80;99.90
28524;DHT22;15734;50.904;6.922;2023-04-07T07:43:51;8.90;99.90
28524;DHT22;15734;50.904;6.922;2023-04-07T07:46:17;8.90;99.90
28524;DHT22;15734;50.904;6.922;2023-04-07T07:48:42;8.90;99.90
28524;DHT22;15734;50.904;6.922;2023-04-07T07:51:08;9.00;99.90
28524;DHT22;15734;50.904;6.922;2023-04-07T07:53:33;9.00;99.90
28524;DHT22;15734;50.904;6.922;2023-04-07T07:55:59;9.00;99.90
28524;DHT22;15734;50.904;6.922;2023-04-07T07:58:25;9.10;99.90
28524;DHT22;15734;50.904;6.922;2023-04-07T08:00:50;9.10;99.90
28524;DHT22;15734;50.904;6.922;2023-04-07T08:03:16;9.10;99.90
28524;DHT22;15734;50.904;6.922;2023-04-07T08:05:43;9.20;99.90
28524;DHT22;15734;50.904;6.922;2023-04-07T08:08:09;9.20;99.90
28524;DHT22;15734;50.904;6.922;2023-04-07T08:10:34;9.20;99.90
28524;DHT22;15734;50.904;6.922;2023-04-07T08:13:00;9.20;99.90
28524;DHT22;15734;50.904;6.922;2023-04-07T08:15:25;9.20;99.90
28524;DHT22;15734;50.904;6.922;2023-04-07T08:17:51;9.10;99.90
28524;DHT22;15734;50.904;6.922;2023-04-07T08:20:16;9.20;99.90
28524;DHT22;15734;50.904;6.922;2023-04-07T08:22:42;9.20;99.90
28524;DHT22;15734;50.904;6.922;2023-04-07T08:25:07;9.10;99.90
28524;DHT22;15734;50.904;6.922;2023-04-07T08:27:33;9.10;99.90
28524;DHT22;15734;50.904;6.922;2023-04-07T08:30:03;9.10;99.90
28524;DHT22;15734;50.904;6.922;2023-04-07T08:32:35;9.20;99.90
28524;DHT22;15734;50.904;6.922;2023-04-07T08:35:01;9.20;99.90
28524;DHT22;15734;50.904;6.922;2023-04-07T08:37:26;9.20;99.90
28524;DHT22;15734;50.904;6.922;2023-04-07T08:39:51;9.20;99.90
28524;DHT22;15734;50.904;6.922;2023-04-07T08:42:17;9.20;99.90
28524;DHT22;15734;50.904;6.922;2023-04-07T08:44:43;9.20;99.90
28524;DHT22;15734;50.904;6.922;2023-04-07T08:47:10;9.20;99.90
28524;DHT22;15734;50.904;6.922;2023-04-07T08:49:36;9.30;99.90
28524;DHT22;15734;50.904;6.922;2023-04-07T08:52:04;9.20;99.90
28524;DHT22;15734;50.904;6.922;2023-04-07T08:54:30;9.30;99.90
28524;DHT22;15734;50.904;6.922;2023-04-07T08:56:58;9.30;99.90
28524;DHT22;15734;50.904;6.922;2023-04-07T08:59:23;9.30;99.90
28524;DHT22;15734;50.904;6.922;2023-04-07T09:01:52;9.40;99.90
28524;DHT22;15734;50.904;6.922;2023-04-07T09:04:18;9.50;99.90
28524;DHT22;15734;50.904;6.922;2023-04-07T09:06:44;9.60;99.90
28524;DHT22;15734;50.904;6.922;2023-04-07T09:09:10;9.60;99.90
28524;DHT22;15734;50.904;6.922;2023-04-07T09:11:39;9.60;99.90
28524;DHT22;15734;50.904;6.922;2023-04-07T09:14:05;9.60;99.90
28524;DHT22;15734;50.904;6.922;2023-04-07T09:16:31;9.70;99.90
28524;DHT22;15734;50.904;6.922;2023-04-07T09:18:56;9.70;99.90
28524;DHT22;15734;50.904;6.922;2023-04-07T09:21:22;9.80;99.90
28524;DHT22;15734;50.904;6.922;2023-04-07T09:23:48;9.80;99.90
28524;DHT22;15734;50.904;6.922;2023-04-07T09:28:42;9.70;99.90
28524;DHT22;15734;50.904;6.922;2023-04-07T09:31:08;9.70;99.90
28524;DHT22;15734;50.904;6.922;2023-04-07T09:33:34;9.70;99.90
28524;DHT22;15734;50.904;6.922;2023-04-07T09:36:01;9.70;99.90
28524;DHT22;15734;50.904;6.922;2023-04-07T09:38:38;9.80;99.90
28524;DHT22;15734;50.904;6.922;2023-04-07T09:41:08;9.90;99.90
28524;DHT22;15734;50.904;6.922;2023-04-07T09:43:35;9.90;99.90
28524;DHT22;15734;50.904;6.922;2023-04-07T09:46:09;10.00;99.90
28524;DHT22;15734;50.904;6.922;2023-04-07T09:48:35;10.00;99.90
28524;DHT22;15734;50.904;6.922;2023-04-07T09:51:04;9.90;99.90
28524;DHT22;15734;50.904;6.922;2023-04-07T09:53:43;9.90;99.90
28524;DHT22;15734;50.904;6.922;2023-04-07T09:56:09;9.90;99.90
28524;DHT22;15734;50.904;6.922;2023-04-07T09:58:36;10.00;99.90
28524;DHT22;15734;50.904;6.922;2023-04-07T10:01:02;10.00;99.90
28524;DHT22;15734;50.904;6.922;2023-04-07T10:03:27;9.90;99.90
28524;DHT22;15734;50.904;6.922;2023-04-07T10:05:53;9.90;99.90
28524;DHT22;15734;50.904;6.922;2023-04-07T10:08:18;9.80;99.90
28524;DHT22;15734;50.904;6.922;2023-04-07T10:10:44;9.80;99.90
28524;DHT22;15734;50.904;6.922;2023-04-07T10:13:10;9.70;99.90
28524;DHT22;15734;50.904;6.922;2023-04-07T10:15:36;9.70;99.90
28524;DHT22;15734;50.904;6.922;2023-04-07T10:18:02;9.60;99.90
28524;DHT22;15734;50.904;6.922;2023-04-07T10:20:30;9.60;99.90
28524;DHT22;15734;50.904;6.922;2023-04-07T10:22:56;9.70;99.90
28524;DHT22;15734;50.904;6.922;2023-04-07T10:25:26;9.60;99.90
28524;DHT22;15734;50.904;6.922;2023-04-07T10:27:54;9.60;99.90
28524;DHT22;15734;50.904;6.922;2023-04-07T10:30:29;9.70;99.90
28524;DHT22;15734;50.904;6.922;2023-04-07T10:32:56;9.70;99.90
28524;DHT22;15734;50.904;6.922;2023-04-07T10:35:22;9.70;99.90
28524;DHT22;15734;50.904;6.922;2023-04-07T10:40:31;9.80;99.90
28524;DHT22;15734;50.904;6.922;2023-04-07T10:42:57;9.70;99.90
28524;DHT22;15734;50.904;6.922;2023-04-07T10:48:10;9.70;99.90
28524;DHT22;15734;50.904;6.922;2023-04-07T10:50:37;9.70;99.90
28524;DHT22;15734;50.904;6.922;2023-04-07T10:53:06;9.80;99.90
28524;DHT22;15734;50.904;6.922;2023-04-07T11:00:36;9.90;99.90
28524;DHT22;15734;50.904;6.922;2023-04-07T11:03:08;9.90;99.90
28524;DHT22;15734;50.904;6.922;2023-04-07T11:05:34;9.90;99.90
28524;DHT22;15734;50.904;6.922;2023-04-07T11:08:02;9.90;99.90
28524;DHT22;15734;50.904;6.922;2023-04-07T11:10:31;9.80;99.90
28524;DHT22;15734;50.904;6.922;2023-04-07T11:12:57;9.70;99.90
28524;DHT22;15734;50.904;6.922;2023-04-07T11:15:22;9.70;99.90
28524;DHT22;15734;50.904;6.922;2023-04-07T11:20:46;9.70;99.90
28524;DHT22;15734;50.904;6.922;2023-04-07T11:23:12;9.70;99.90
28524;DHT22;15734;50.904;6.922;2023-04-07T11:25:38;9.70;99.90
28524;DHT22;15734;50.904;6.922;2023-04-07T11:28:08;9.80;99.90
28524;DHT22;15734;50.904;6.922;2023-04-07T11:30:33;9.90;99.90
28524;DHT22;15734;50.904;6.922;2023-04-07T11:33:00;9.80;99.90
28524;DHT22;15734;50.904;6.922;2023-04-07T11:35:25;9.80;99.90
28524;DHT22;15734;50.904;6.922;2023-04-07T11:37:58;9.90;99.90
28524;DHT22;15734;50.904;6.922;2023-04-07T11:40:34;9.90;99.90
28524;DHT22;15734;50.904;6.922;2023-04-07T11:43:01;9.90;99.90
28524;DHT22;15734;50.904;6.922;2023-04-07T11:45:27;9.80;99.90
28524;DHT22;15734;50.904;6.922;2023-04-07T11:47:52;9.90;99.90
28524;DHT22;15734;50.904;6.922;2023-04-07T11:50:38;9.80;99.90
28524;DHT22;15734;50.904;6.922;2023-04-07T11:53:03;9.90;99.90
28524;DHT22;15734;50.904;6.922;2023-04-07T11:55:28;10.00;99.90
28524;DHT22;15734;50.904;6.922;2023-04-07T11:57:54;10.10;99.90
28524;DHT22;15734;50.904;6.922;2023-04-07T12:00:20;10.20;99.90
28524;DHT22;15734;50.904;6.922;2023-04-07T12:02:45;10.30;99.90
28524;DHT22;15734;50.904;6.922;2023-04-07T12:05:11;10.40;99.90
28524;DHT22;15734;50.904;6.922;2023-04-07T12:07:36;10.40;99.90
28524;DHT22;15734;50.904;6.922;2023-04-07T12:10:18;10.40;99.90
28524;DHT22;15734;50.904;6.922;2023-04-07T12:12:44;10.30;99.90
28524;DHT22;15734;50.904;6.922;2023-04-07T12:15:10;10.30;99.90
28524;DHT22;15734;50.904;6.922;2023-04-07T12:17:36;10.30;99.90
28524;DHT22;15734;50.904;6.922;2023-04-07T12:20:01;10.20;99.90
28524;DHT22;15734;50.904;6.922;2023-04-07T12:22:26;10.30;99.90
28524;DHT22;15734;50.904;6.922;2023-04-07T12:24:52;10.20;99.90
28524;DHT22;15734;50.904;6.922;2023-04-07T12:27:18;10.20;99.90
28524;DHT22;15734;50.904;6.922;2023-04-07T12:29:43;10.10;99.90
28524;DHT22;15734;50.904;6.922;2023-04-07T12:32:08;10.10;99.90
28524;DHT22;15734;50.904;6.922;2023-04-07T12:34:34;10.10;99.90
28524;DHT22;15734;50.904;6.922;2023-04-07T12:37:01;10.10;99.90
28524;DHT22;15734;50.904;6.922;2023-04-07T12:39:27;10.10;99.90
28524;DHT22;15734;50.904;6.922;2023-04-07T12:41:52;10.10;99.90
28524;DHT22;15734;50.904;6.922;2023-04-07T12:44:18;10.10;99.90
28524;DHT22;15734;50.904;6.922;2023-04-07T12:46:43;10.10;99.90
28524;DHT22;15734;50.904;6.922;2023-04-07T12:49:09;10.10;99.90
28524;DHT22;15734;50.904;6.922;2023-04-07T12:51:34;10.20;99.90
28524;DHT22;15734;50.904;6.922;2023-04-07T12:54:00;10.30;99.90
28524;DHT22;15734;50.904;6.922;2023-04-07T12:56:26;10.20;99.90
28524;DHT22;15734;50.904;6.922;2023-04-07T12:58:52;10.30;99.90
28524;DHT22;15734;50.904;6.922;2023-04-07T13:01:18;10.50;99.90
28524;DHT22;15734;50.904;6.922;2023-04-07T13:03:44;10.50;99.90
28524;DHT22;15734;50.904;6.922;2023-04-07T13:06:10;10.50;99.90
28524;DHT22;15734;50.904;6.922;2023-04-07T13:08:36;10.30;99.90
28524;DHT22;15734;50.904;6.922;2023-04-07T13:11:02;10.30;99.90
28524;DHT22;15734;50.904;6.922;2023-04-07T13:13:27;10.20;99.90
28524;DHT22;15734;50.904;6.922;2023-04-07T13:15:53;10.20;99.90
28524;DHT22;15734;50.904;6.922;2023-04-07T13:18:19;10.30;99.90
28524;DHT22;15734;50.904;6.922;2023-04-07T13:20:44;10.40;99.90
28524;DHT22;15734;50.904;6.922;2023-04-07T13:23:10;10.50;99.90
28524;DHT22;15734;50.904;6.922;2023-04-07T13:25:36;10.60;99.90
28524;DHT22;15734;50.904;6.922;2023-04-07T13:28:01;10.80;99.90
28524;DHT22;15734;50.904;6.922;2023-04-07T13:30:27;10.70;99.90
28524;DHT22;15734;50.904;6.922;2023-04-07T13:32:53;10.90;99.90
28524;DHT22;15734;50.904;6.922;2023-04-07T13:35:18;10.90;99.90
28524;DHT22;15734;50.904;6.922;2023-04-07T13:37:44;10.90;99.90
28524;DHT22;15734;50.904;6.922;2023-04-07T13:40:10;11.00;99.90
28524;DHT22;15734;50.904;6.922;2023-04-07T13:42:37;11.10;99.90
28524;DHT22;15734;50.904;6.922;2023-04-07T13:45:02;11.30;99.90
28524;DHT22;15734;50.904;6.922;2023-04-07T13:47:28;11.40;99.90
28524;DHT22;15734;50.904;6.922;2023-04-07T13:49:58;11.30;99.90
28524;DHT22;15734;50.904;6.922;2023-04-07T13:52:24;11.30;99.90
28524;DHT22;15734;50.904;6.922;2023-04-07T13:54:49;11.30;99.90
28524;DHT22;15734;50.904;6.922;2023-04-07T13:57:15;11.20;99.90
28524;DHT22;15734;50.904;6.922;2023-04-07T13:59:47;11.10;99.90
28524;DHT22;15734;50.904;6.922;2023-04-07T14:02:13;11.00;99.90
28524;DHT22;15734;50.904;6.922;2023-04-07T14:04:39;11.00;99.90
28524;DHT22;15734;50.904;6.922;2023-04-07T14:07:04;11.00;99.90
28524;DHT22;15734;50.904;6.922;2023-04-07T14:09:30;11.00;99.90
28524;DHT22;15734;50.904;6.922;2023-04-07T14:11:55;10.90;99.90
28524;DHT22;15734;50.904;6.922;2023-04-07T14:14:21;10.80;99.90
28524;DHT22;15734;50.904;6.922;2023-04-07T14:16:47;10.80;99.90
28524;DHT22;15734;50.904;6.922;2023-04-07T14:19:18;10.80;99.90
28524;DHT22;15734;50.904;6.922;2023-04-07T14:21:44;10.80;99.90
28524;DHT22;15734;50.904;6.922;2023-04-07T14:24:10;10.70;99.90
28524;DHT22;15734;50.904;6.922;2023-04-07T14:26:35;10.70;99.90
28524;DHT22;15734;50.904;6.922;2023-04-07T14:29:01;10.80;99.90
28524;DHT22;15734;50.904;6.922;2023-04-07T14:31:26;10.80;99.90
28524;DHT22;15734;50.904;6.922;2023-04-07T14:33:52;10.80;99.90
28524;DHT22;15734;50.904;6.922;2023-04-07T14:36:17;10.80;99.90
28524;DHT22;15734;50.904;6.922;2023-04-07T14:38:42;10.70;99.90
28524;DHT22;15734;50.904;6.922;2023-04-07T14:41:08;10.70;99.90
28524;DHT22;15734;50.904;6.922;2023-04-07T14:43:34;10.80;99.90
28524;DHT22;15734;50.904;6.922;2023-04-07T14:46:00;10.80;99.90
28524;DHT22;15734;50.904;6.922;2023-04-07T14:48:25;10.70;99.90
28524;DHT22;15734;50.904;6.922;2023-04-07T14:50:51;10.80;99.90
28524;DHT22;15734;50.904;6.922;2023-04-07T14:53:17;11.00;99.90
28524;DHT22;15734;50.904;6.922;2023-04-07T14:55:42;10.90;99.90
28524;DHT22;15734;50.904;6.922;2023-04-07T14:58:07;10.90;99.90
28524;DHT22;15734;50.904;6.922;2023-04-07T15:00:33;10.90;99.90
28524;DHT22;15734;50.904;6.922;2023-04-07T15:02:59;10.90;99.90
28524;DHT22;15734;50.904;6.922;2023-04-07T15:05:24;10.80;99.90
28524;DHT22;15734;50.904;6.922;2023-04-07T15:07:52;10.90;99.90
28524;DHT22;15734;50.904;6.922;2023-04-07T15:10:18;10.90;99.90
28524;DHT22;15734;50.904;6.922;2023-04-07T15:12:44;10.80;99.90
28524;DHT22;15734;50.904;6.922;2023-04-07T15:15:14;10.90;99.90
28524;DHT22;15734;50.904;6.922;2023-04-07T15:17:39;10.80;99.90
28524;DHT22;15734;50.904;6.922;2023-04-07T15:20:05;10.70;99.90
28524;DHT22;15734;50.904;6.922;2023-04-07T15:22:31;10.70;99.90
28524;DHT22;15734;50.904;6.922;2023-04-07T15:24:56;10.70;99.90
28524;DHT22;15734;50.904;6.922;2023-04-07T15:27:22;10.60;99.90
28524;DHT22;15734;50.904;6.922;2023-04-07T15:29:47;10.60;99.90
28524;DHT22;15734;50.904;6.922;2023-04-07T15:32:12;10.60;99.90
28524;DHT22;15734;50.904;6.922;2023-04-07T15:34:38;10.60;99.90
28524;DHT22;15734;50.904;6.922;2023-04-07T15:37:03;10.60;99.90
28524;DHT22;15734;50.904;6.922;2023-04-07T15:39:29;10.60;99.90
28524;DHT22;15734;50.904;6.922;2023-04-07T15:41:54;10.70;99.90
28524;DHT22;15734;50.904;6.922;2023-04-07T15:44:21;10.80;99.90
28524;DHT22;15734;50.904;6.922;2023-04-07T15:46:46;10.70;99.90
28524;DHT22;15734;50.904;6.922;2023-04-07T15:49:12;10.70;99.90
28524;DHT22;15734;50.904;6.922;2023-04-07T15:51:38;10.70;99.90